Time;durP1;ratioP1;P1;durP2;ratioP2;P2;SDS_P1;SDS_P2;PMS_P1;PMS_P2;Temp;Humidity;BMP_temperature;BMP_pressure;BME280_temperature;BME280_humidity;BME280_pressure;Samples;Min_cycle;Max_cycle;Signal;HPM_P1;HPM_P2
2021/12/07 00:02:01;;;;;;;42.72;24.80;;;4.10;81.20;;;;;;5016483;28;20259;-71
2021/12/07 00:04:30;;;;;;;33.22;20.83;;;4.10;81.30;;;;;;5016938;28;20661;-71
2021/12/07 00:06:58;;;;;;;35.85;21.90;;;4.10;81.40;;;;;;5018556;28;20266;-71
2021/12/07 00:09:29;;;;;;;29.23;18.52;;;4.10;81.30;;;;;;5017531;28;20201;-71
2021/12/07 00:12:03;;;;;;;30.23;18.02;;;4.00;81.40;;;;;;5016488;28;20201;-71
2021/12/07 00:14:37;;;;;;;33.47;19.20;;;4.10;81.30;;;;;;5019388;28;20314;-71
2021/12/07 00:17:06;;;;;;;35.28;19.80;;;4.10;81.40;;;;;;5020147;28;20757;-70
2021/12/07 00:19:34;;;;;;;30.35;18.00;;;4.10;81.50;;;;;;5019766;28;20193;-71
2021/12/07 00:22:05;;;;;;;25.42;16.90;;;4.10;81.50;;;;;;5018221;28;20247;-71
2021/12/07 00:24:36;;;;;;;29.65;18.00;;;4.10;81.50;;;;;;5016070;28;20259;-71
2021/12/07 00:27:06;;;;;;;27.90;16.35;;;4.10;81.40;;;;;;5018071;28;20247;-71
2021/12/07 00:29:34;;;;;;;28.58;16.13;;;4.10;81.30;;;;;;5015897;28;20189;-71
2021/12/07 00:32:17;;;;;;;32.90;19.58;;;4.20;81.50;;;;;;5013775;28;20233;-71
2021/12/07 00:35:00;;;;;;;35.78;18.55;;;4.20;81.60;;;;;;5017539;28;20760;-71
2021/12/07 00:37:34;;;;;;;27.38;15.18;;;4.20;81.50;;;;;;5019617;28;20232;-71
2021/12/07 00:40:06;;;;;;;23.08;13.95;;;4.20;81.40;;;;;;5025226;28;20343;-71
2021/12/07 00:42:38;;;;;;;21.13;13.40;;;4.30;81.10;;;;;;5023344;28;20224;-71
2021/12/07 00:45:08;;;;;;;21.13;13.43;;;4.30;81.10;;;;;;5016236;28;20201;-71
2021/12/07 00:47:36;;;;;;;19.10;12.93;;;4.20;81.30;;;;;;5017765;28;20232;-71
2021/12/07 00:50:05;;;;;;;22.48;12.70;;;4.20;81.30;;;;;;5022883;28;20280;-71
2021/12/07 00:52:33;;;;;;;19.33;12.80;;;4.20;81.00;;;;;;5021387;28;20208;-71
2021/12/07 00:55:03;;;;;;;15.88;11.05;;;4.20;81.00;;;;;;5020813;28;20285;-71
2021/12/07 00:57:31;;;;;;;19.58;12.40;;;4.20;81.00;;;;;;5018152;28;20236;-71
2021/12/07 01:00:00;;;;;;;17.45;11.57;;;4.20;81.10;;;;;;5014706;28;20230;-71
2021/12/07 01:02:29;;;;;;;16.98;11.50;;;4.20;81.30;;;;;;5020517;28;20315;-71
2021/12/07 01:05:03;;;;;;;18.73;11.23;;;4.20;81.30;;;;;;5017361;28;20212;-71
2021/12/07 01:07:52;;;;;;;18.40;12.43;;;4.30;81.50;;;;;;5015810;28;20228;-71
2021/12/07 01:26:56;;;;;;;15.80;10.02;;;4.30;81.30;;;;;;5017669;28;20236;-71
2021/12/07 01:29:26;;;;;;;15.10;9.70;;;4.30;81.30;;;;;;5018625;28;20295;-71
2021/12/07 01:32:07;;;;;;;14.75;9.80;;;4.40;81.30;;;;;;5025747;28;20244;-71
2021/12/07 01:35:10;;;;;;;13.40;8.73;;;4.40;81.30;;;;;;5018917;28;20666;-71
2021/12/07 01:37:51;;;;;;;17.25;9.85;;;4.40;81.30;;;;;;5021987;28;20586;-71
2021/12/07 01:40:35;;;;;;;14.07;8.75;;;4.40;81.30;;;;;;5025166;28;20210;-69
2021/12/07 01:46:03;;;;;;;10.55;8.05;;;4.40;81.10;;;;;;4975197;28;20236;-75
2021/12/07 01:59:33;;;;;;;11.93;7.72;;;4.10;81.20;;;;;;5026302;28;20212;-72
2021/12/07 02:02:05;;;;;;;10.70;7.50;;;4.10;81.20;;;;;;5028075;28;20745;-72
2021/12/07 02:04:35;;;;;;;11.68;7.75;;;4.00;81.30;;;;;;5021194;28;20745;-71
2021/12/07 02:07:06;;;;;;;12.38;7.28;;;4.00;81.50;;;;;;5041044;28;20328;-75
2021/12/07 02:09:39;;;;;;;10.57;7.90;;;4.10;81.30;;;;;;5024521;28;20208;-69
2021/12/07 02:12:09;;;;;;;11.38;7.20;;;4.00;81.30;;;;;;5023726;28;20295;-71
2021/12/07 02:14:36;;;;;;;12.27;7.35;;;4.00;81.50;;;;;;5025337;28;21213;-72
2021/12/07 02:17:10;;;;;;;9.90;7.45;;;4.00;81.50;;;;;;5022022;28;20255;-72
2021/12/07 02:19:41;;;;;;;9.57;7.00;;;4.00;81.60;;;;;;5028398;28;20769;-73
2021/12/07 02:22:11;;;;;;;9.85;6.93;;;4.10;81.60;;;;;;5025334;28;20224;-73
2021/12/07 02:24:45;;;;;;;11.00;7.13;;;4.00;81.60;;;;;;5021639;28;20204;-70
2021/12/07 02:27:14;;;;;;;11.55;7.90;;;4.00;81.50;;;;;;5020782;28;20222;-73
2021/12/07 02:29:42;;;;;;;10.55;7.20;;;4.00;81.70;;;;;;5025535;28;20193;-69
2021/12/07 02:32:10;;;;;;;9.35;7.00;;;4.00;81.70;;;;;;5025596;28;20229;-69
2021/12/07 02:34:43;;;;;;;11.23;8.10;;;4.00;81.80;;;;;;5025475;28;20212;-70
2021/12/07 02:37:13;;;;;;;9.32;6.90;;;4.00;81.70;;;;;;5025660;28;20307;-71
2021/12/07 02:39:44;;;;;;;10.88;7.30;;;4.00;81.80;;;;;;5025735;28;20577;-73
2021/12/07 02:42:12;;;;;;;8.57;6.47;;;4.10;81.90;;;;;;5023698;28;20271;-73
2021/12/07 02:44:40;;;;;;;8.70;6.47;;;4.10;81.90;;;;;;5029886;28;20201;-74
2021/12/07 02:47:12;;;;;;;8.52;5.68;;;4.10;81.90;;;;;;5024160;28;20229;-73
2021/12/07 02:49:40;;;;;;;8.43;6.45;;;4.10;81.90;;;;;;5028243;28;20701;-74
2021/12/07 02:52:09;;;;;;;9.25;6.25;;;4.10;81.70;;;;;;5021992;28;20256;-73
2021/12/07 02:54:44;;;;;;;9.32;6.40;;;4.10;81.90;;;;;;5026903;28;20616;-72
2021/12/07 02:57:19;;;;;;;9.07;6.20;;;4.20;81.90;;;;;;5026688;28;20263;-70
2021/12/07 02:59:58;;;;;;;8.05;5.43;;;4.10;81.70;;;;;;5028785;28;20233;-70
2021/12/07 03:02:27;;;;;;;7.93;5.70;;;4.10;81.90;;;;;;5025492;28;20266;-69
2021/12/07 03:05:06;;;;;;;7.65;5.20;;;4.10;81.90;;;;;;5024738;28;20216;-75
2021/12/07 03:07:48;;;;;;;6.22;4.80;;;4.10;82.10;;;;;;5023947;28;20217;-73
2021/12/07 03:26:55;;;;;;;6.40;4.20;;;4.10;82.20;;;;;;5028184;28;20227;-70
2021/12/07 03:29:24;;;;;;;6.63;4.47;;;4.20;82.20;;;;;;5035386;28;20209;-70
2021/12/07 03:31:52;;;;;;;6.90;4.90;;;4.20;82.20;;;;;;5022659;28;20252;-72
2021/12/07 03:34:20;;;;;;;6.35;4.38;;;4.10;82.10;;;;;;5023935;28;20300;-70
2021/12/07 03:36:49;;;;;;;5.35;3.75;;;4.20;82.20;;;;;;5025908;28;20266;-74
2021/12/07 03:39:18;;;;;;;5.80;4.30;;;4.20;82.20;;;;;;5039243;28;20214;-72
2021/12/07 03:41:46;;;;;;;5.72;4.15;;;4.20;82.30;;;;;;5042339;28;20202;-75
2021/12/07 03:44:16;;;;;;;6.75;4.72;;;4.20;82.30;;;;;;5026418;28;20211;-70
2021/12/07 03:46:44;;;;;;;6.93;4.18;;;4.20;82.30;;;;;;5023225;28;20265;-75
2021/12/07 03:49:12;;;;;;;6.22;3.60;;;4.20;82.20;;;;;;5025446;28;20256;-72
2021/12/07 03:51:41;;;;;;;5.50;3.80;;;4.30;82.30;;;;;;5026417;28;20202;-72
2021/12/07 03:54:09;;;;;;;6.80;4.47;;;4.30;82.30;;;;;;5026270;28;20209;-72
2021/12/07 03:56:37;;;;;;;5.80;4.25;;;4.30;82.30;;;;;;5025982;28;20232;-73
2021/12/07 03:59:06;;;;;;;5.03;3.55;;;4.30;82.30;;;;;;5033166;28;20225;-72
2021/12/07 04:01:35;;;;;;;5.63;4.18;;;4.20;82.40;;;;;;5019317;28;20235;-70
2021/12/07 04:04:04;;;;;;;6.03;3.78;;;4.30;82.30;;;;;;5012904;28;20220;-70
2021/12/07 04:06:32;;;;;;;5.88;4.20;;;4.30;82.40;;;;;;5022747;28;20776;-70
2021/12/07 04:09:01;;;;;;;5.93;4.30;;;4.30;82.50;;;;;;5021094;28;20694;-72
2021/12/07 04:11:30;;;;;;;7.03;4.35;;;4.30;82.50;;;;;;5017136;28;20204;-71
2021/12/07 04:13:58;;;;;;;8.20;4.63;;;4.40;82.60;;;;;;5018843;28;20210;-70
2021/12/07 04:16:29;;;;;;;7.85;5.07;;;4.40;82.60;;;;;;5023024;28;20237;-71
2021/12/07 04:19:00;;;;;;;6.45;4.63;;;4.40;82.50;;;;;;5031878;28;20593;-71
2021/12/07 04:21:28;;;;;;;6.78;4.28;;;4.40;82.60;;;;;;5017257;28;20682;-71
2021/12/07 04:23:56;;;;;;;8.55;4.95;;;4.40;82.50;;;;;;5016572;28;20216;-71
2021/12/07 04:26:25;;;;;;;6.10;4.88;;;4.40;82.50;;;;;;5015408;28;20241;-71
2021/12/07 04:28:53;;;;;;;5.55;3.75;;;4.40;82.60;;;;;;5017291;28;20868;-70
2021/12/07 04:31:21;;;;;;;7.57;4.80;;;4.50;82.70;;;;;;5016737;28;20239;-71
2021/12/07 04:33:49;;;;;;;11.93;5.03;;;4.50;82.70;;;;;;5017192;28;20817;-70
2021/12/07 04:36:18;;;;;;;6.63;4.40;;;4.50;82.70;;;;;;5018504;28;20233;-70
2021/12/07 04:38:46;;;;;;;6.15;3.95;;;4.50;82.70;;;;;;5018553;28;20216;-71
2021/12/07 04:41:15;;;;;;;7.45;4.70;;;4.50;82.80;;;;;;5017519;28;20213;-71
2021/12/07 04:43:45;;;;;;;6.40;3.47;;;4.50;82.80;;;;;;5014804;28;20193;-71
2021/12/07 04:46:18;;;;;;;5.90;3.40;;;4.60;82.70;;;;;;5018890;28;20245;-71
2021/12/07 04:59:49;;;;;;;6.78;3.88;;;4.70;82.70;;;;;;5024436;28;20207;-71
2021/12/07 05:02:18;;;;;;;7.15;3.63;;;4.70;82.70;;;;;;5022333;28;20225;-70
2021/12/07 05:04:46;;;;;;;5.05;2.85;;;4.70;82.70;;;;;;5023448;28;20216;-72
2021/12/07 05:07:23;;;;;;;5.43;2.88;;;4.70;82.70;;;;;;5019268;28;20232;-71
2021/12/07 05:10:17;;;;;;;7.65;3.30;;;4.70;82.70;;;;;;5021534;28;21023;-71
2021/12/07 05:13:09;;;;;;;5.53;2.70;;;4.70;82.90;;;;;;5019475;28;20197;-71
2021/12/07 05:18:37;;;;;;;5.72;3.20;;;4.70;82.80;;;;;;5019169;28;20209;-71
2021/12/07 05:23:57;;;;;;;9.25;3.38;;;4.70;83.00;;;;;;5019834;28;20282;-71
2021/12/07 05:37:38;;;;;;;7.43;3.00;;;4.80;82.90;;;;;;5025665;28;20576;-70
2021/12/07 05:37:49;;;;;;;6.55;3.20;;;4.80;83.00;;;;;;5018557;28;20720;-70
2021/12/07 05:40:22;;;;;;;6.40;3.05;;;4.80;82.90;;;;;;5026798;28;20194;-71
2021/12/07 05:42:50;;;;;;;7.03;3.10;;;4.80;82.90;;;;;;5021824;28;20216;-70
2021/12/07 05:45:21;;;;;;;5.30;3.10;;;4.80;83.00;;;;;;5023648;28;20251;-70
2021/12/07 05:47:49;;;;;;;5.75;2.50;;;4.80;83.10;;;;;;5022180;28;20893;-70
2021/12/07 05:50:21;;;;;;;10.68;2.65;;;4.80;83.10;;;;;;5020228;28;20663;-70
2021/12/07 05:52:49;;;;;;;5.45;3.17;;;4.80;83.00;;;;;;5023200;28;20291;-70
2021/12/07 05:55:19;;;;;;;5.65;2.72;;;4.80;83.10;;;;;;5021118;28;20209;-70
2021/12/07 05:57:47;;;;;;;5.38;2.63;;;4.80;83.20;;;;;;5020789;28;20291;-70
2021/12/07 06:00:24;;;;;;;7.22;3.50;;;4.80;83.20;;;;;;5022191;28;20846;-70
2021/12/07 06:02:52;;;;;;;5.32;2.85;;;4.80;83.30;;;;;;5026616;28;20201;-71
2021/12/07 06:05:21;;;;;;;5.60;2.80;;;4.80;83.20;;;;;;5020286;28;20222;-70
2021/12/07 06:07:49;;;;;;;7.20;2.88;;;4.80;83.30;;;;;;5017408;28;20222;-70
2021/12/07 06:10:19;;;;;;;5.80;2.90;;;4.80;83.40;;;;;;5019514;28;20408;-70
2021/12/07 06:12:47;;;;;;;8.40;3.47;;;4.80;83.40;;;;;;5019478;28;20210;-70
2021/12/07 06:15:18;;;;;;;6.68;3.38;;;4.90;83.40;;;;;;5014423;28;20687;-70
2021/12/07 06:17:47;;;;;;;7.85;3.08;;;4.90;83.40;;;;;;5021655;28;20589;-70
2021/12/07 06:20:16;;;;;;;8.98;3.53;;;4.90;83.50;;;;;;5021170;28;20252;-70
2021/12/07 06:23:02;;;;;;;6.80;3.25;;;4.90;83.50;;;;;;5020799;28;20205;-70
2021/12/07 06:25:31;;;;;;;8.82;2.95;;;4.90;83.50;;;;;;5025245;28;20213;-71
2021/12/07 06:27:59;;;;;;;6.80;3.10;;;4.90;83.50;;;;;;5016223;28;20237;-71
2021/12/07 06:30:27;;;;;;;6.85;3.17;;;4.90;83.60;;;;;;5020661;28;20237;-70
2021/12/07 06:32:55;;;;;;;8.02;3.15;;;4.90;83.60;;;;;;5016494;28;20193;-70
2021/12/07 06:35:23;;;;;;;7.00;3.05;;;4.90;83.60;;;;;;5021185;28;20209;-70
2021/12/07 06:37:52;;;;;;;6.55;3.10;;;4.90;83.60;;;;;;5019185;28;20768;-70
2021/12/07 06:40:23;;;;;;;8.50;3.70;;;4.90;83.50;;;;;;5021192;28;20213;-71
2021/12/07 06:42:54;;;;;;;8.90;3.08;;;4.90;83.60;;;;;;5020967;28;20210;-70
2021/12/07 06:45:22;;;;;;;9.57;3.17;;;4.90;83.60;;;;;;5020773;28;20220;-70
2021/12/07 06:47:50;;;;;;;7.88;3.50;;;4.90;83.70;;;;;;5019859;28;20229;-70
2021/12/07 06:50:18;;;;;;;8.07;3.38;;;4.90;83.60;;;;;;5019296;28;20202;-70
2021/12/07 06:52:46;;;;;;;8.88;3.35;;;4.90;83.60;;;;;;5023301;28;20934;-70
2021/12/07 06:55:14;;;;;;;7.63;2.90;;;4.90;83.80;;;;;;5023378;28;20216;-70
2021/12/07 06:57:42;;;;;;;6.40;3.03;;;4.90;83.70;;;;;;5019044;28;20594;-71
2021/12/07 07:00:14;;;;;;;9.55;3.80;;;4.80;83.80;;;;;;5022261;28;20263;-71
2021/12/07 07:02:42;;;;;;;7.15;3.50;;;4.80;83.90;;;;;;5017934;28;20212;-71
2021/12/07 07:05:11;;;;;;;7.65;3.80;;;4.90;83.90;;;;;;5022343;28;20733;-71
2021/12/07 07:07:40;;;;;;;6.97;3.55;;;4.90;83.90;;;;;;5021891;28;20572;-71
2021/12/07 07:10:10;;;;;;;7.20;3.10;;;4.90;83.80;;;;;;5019215;28;20292;-71
2021/12/07 07:12:38;;;;;;;10.45;3.70;;;4.90;83.90;;;;;;5022228;28;20194;-71
2021/12/07 07:15:08;;;;;;;10.27;3.97;;;4.90;83.90;;;;;;5020936;28;20197;-71
2021/12/07 07:17:37;;;;;;;9.38;3.45;;;4.90;84.00;;;;;;5015756;28;20622;-71
2021/12/07 07:20:08;;;;;;;9.35;4.35;;;4.80;84.10;;;;;;5012153;28;20243;-71
2021/12/07 07:22:36;;;;;;;6.90;4.20;;;4.90;84.00;;;;;;5018479;28;20832;-71
2021/12/07 07:25:06;;;;;;;14.07;4.25;;;4.90;84.00;;;;;;5019813;28;20205;-70
2021/12/07 07:27:34;;;;;;;15.50;4.00;;;4.90;84.00;;;;;;5018813;28;20221;-71
2021/12/07 07:30:02;;;;;;;9.10;4.60;;;4.90;84.10;;;;;;5016645;28;20197;-71
2021/12/07 07:32:30;;;;;;;13.82;4.10;;;4.90;84.10;;;;;;5015802;28;20224;-72
2021/12/07 07:34:59;;;;;;;10.55;3.85;;;4.90;84.10;;;;;;5020647;28;20213;-70
2021/12/07 07:37:27;;;;;;;8.80;3.05;;;4.90;84.20;;;;;;5014175;28;20221;-71
2021/12/07 07:39:55;;;;;;;8.27;3.60;;;5.00;84.20;;;;;;5016428;28;20210;-70
2021/12/07 07:42:23;;;;;;;8.40;3.58;;;4.90;84.20;;;;;;5024040;28;20232;-70
2021/12/07 07:45:14;;;;;;;6.68;3.65;;;5.00;84.20;;;;;;5040095;28;20327;-70
2021/12/07 07:47:43;;;;;;;10.30;3.78;;;5.00;84.30;;;;;;5024513;28;20699;-74
2021/12/07 07:50:14;;;;;;;13.15;3.95;;;4.90;84.30;;;;;;5024125;28;20935;-69
2021/12/07 07:52:43;;;;;;;14.60;3.78;;;5.00;84.30;;;;;;5027902;28;20196;-70
2021/12/07 07:55:12;;;;;;;9.00;3.50;;;5.00;84.20;;;;;;5020431;28;20264;-70
2021/12/07 07:57:41;;;;;;;8.85;3.92;;;5.00;84.30;;;;;;5025010;28;20248;-73
2021/12/07 08:00:11;;;;;;;7.30;3.67;;;5.10;84.30;;;;;;5024959;28;20208;-69
2021/12/07 08:02:39;;;;;;;5.88;3.30;;;5.10;84.30;;;;;;5022186;28;20738;-69
2021/12/07 08:05:09;;;;;;;9.68;3.58;;;5.10;84.30;;;;;;5024320;28;20217;-74
2021/12/07 08:07:39;;;;;;;5.90;2.83;;;5.10;84.20;;;;;;5023913;28;20217;-69
2021/12/07 08:10:10;;;;;;;7.47;3.97;;;5.10;84.30;;;;;;5024831;28;20201;-69
2021/12/07 08:12:38;;;;;;;10.30;3.75;;;5.20;84.10;;;;;;5027988;28;20201;-71
2021/12/07 08:15:07;;;;;;;10.13;3.80;;;5.10;84.20;;;;;;5022523;28;20281;-73
2021/12/07 08:17:35;;;;;;;10.88;4.32;;;5.10;84.20;;;;;;5019527;28;20712;-72
2021/12/07 08:20:04;;;;;;;10.65;4.00;;;5.10;84.30;;;;;;5019096;28;20212;-69
2021/12/07 08:22:32;;;;;;;6.32;3.60;;;5.10;84.30;;;;;;5019601;28;20210;-72
2021/12/07 08:25:02;;;;;;;7.60;3.70;;;5.20;84.30;;;;;;5024594;28;20213;-72
2021/12/07 08:27:30;;;;;;;6.75;4.25;;;5.20;84.20;;;;;;5024055;28;20614;-68
2021/12/07 08:29:58;;;;;;;11.30;3.72;;;5.20;84.20;;;;;;5024854;28;20704;-69
2021/12/07 08:32:26;;;;;;;6.00;3.17;;;5.20;84.20;;;;;;5021907;28;20308;-69
2021/12/07 08:34:54;;;;;;;11.48;3.90;;;5.30;84.20;;;;;;5025011;28;20201;-69
2021/12/07 08:37:22;;;;;;;7.43;4.45;;;5.30;84.20;;;;;;5027590;28;20231;-70
2021/12/07 08:39:50;;;;;;;14.18;3.55;;;5.20;84.20;;;;;;5025674;28;20212;-70
2021/12/07 08:42:19;;;;;;;10.07;3.83;;;5.20;84.20;;;;;;5027596;28;20204;-72
2021/12/07 08:44:48;;;;;;;7.07;3.20;;;5.20;84.20;;;;;;5027544;28;20208;-74
2021/12/07 08:47:16;;;;;;;5.95;2.85;;;5.20;84.20;;;;;;5021062;28;20244;-71
2021/12/07 08:50:07;;;;;;;9.85;3.20;;;5.20;84.30;;;;;;5025471;28;20197;-74
2021/12/07 08:52:35;;;;;;;12.25;3.40;;;5.20;84.30;;;;;;5021076;28;20885;-71
2021/12/07 09:00:36;;;;;;;13.18;3.92;;;5.30;84.20;;;;;;5023071;28;20239;-74
2021/12/07 09:03:04;;;;;;;9.40;3.65;;;5.30;84.30;;;;;;5024126;28;20214;-74
2021/12/07 09:05:32;;;;;;;10.48;3.72;;;5.30;84.30;;;;;;5026718;28;20641;-73
2021/12/07 09:08:00;;;;;;;9.73;4.25;;;5.30;84.30;;;;;;5022009;28;20230;-76
2021/12/07 09:10:28;;;;;;;11.30;4.22;;;5.30;84.30;;;;;;5023838;28;20201;-74
2021/12/07 09:12:57;;;;;;;7.82;3.90;;;5.30;84.20;;;;;;5014982;28;20201;-75
2021/12/07 09:15:27;;;;;;;12.38;2.95;;;5.30;84.20;;;;;;5016725;28;20284;-75
2021/12/07 09:17:55;;;;;;;6.50;3.10;;;5.40;84.20;;;;;;5020877;28;20229;-71
2021/12/07 09:20:23;;;;;;;9.02;3.22;;;5.40;84.10;;;;;;5017290;28;20229;-71
2021/12/07 09:22:51;;;;;;;6.90;2.75;;;5.40;84.10;;;;;;5016290;28;20203;-72
2021/12/07 09:25:19;;;;;;;9.73;3.58;;;5.40;84.10;;;;;;5018933;28;20216;-73
2021/12/07 09:27:47;;;;;;;8.25;3.58;;;5.40;84.00;;;;;;5012544;28;20229;-73
2021/12/07 09:30:17;;;;;;;10.23;3.90;;;5.40;84.00;;;;;;5013078;28;20209;-73
2021/12/07 09:32:46;;;;;;;11.35;4.63;;;5.40;84.10;;;;;;5019003;28;20197;-72
2021/12/07 09:35:15;;;;;;;9.45;4.00;;;5.40;84.10;;;;;;5019375;28;20911;-74
2021/12/07 09:37:46;;;;;;;13.35;3.15;;;5.50;84.00;;;;;;5014980;28;20244;-73
2021/12/07 09:40:17;;;;;;;5.50;3.30;;;5.50;84.00;;;;;;5013239;28;20221;-74
2021/12/07 09:42:45;;;;;;;13.07;3.53;;;5.50;84.00;;;;;;5017006;28;20319;-74
2021/12/07 09:45:17;;;;;;;13.02;3.88;;;5.50;83.90;;;;;;5023035;28;20689;-72
2021/12/07 09:47:46;;;;;;;7.00;3.20;;;5.50;83.90;;;;;;5020744;28;20228;-72
2021/12/07 09:50:17;;;;;;;7.65;2.92;;;5.50;83.90;;;;;;5019809;28;20197;-72
2021/12/07 09:52:48;;;;;;;10.82;3.38;;;5.50;83.90;;;;;;5014735;28;20208;-72
2021/12/07 09:55:17;;;;;;;11.20;3.58;;;5.50;83.80;;;;;;5018915;28;21113;-71
2021/12/07 09:57:46;;;;;;;8.88;3.40;;;5.50;83.70;;;;;;5020199;28;20332;-72
2021/12/07 10:00:21;;;;;;;13.02;5.72;;;5.50;83.80;;;;;;5017369;28;21117;-71
2021/12/07 10:02:50;;;;;;;6.97;2.80;;;5.50;83.80;;;;;;5037646;28;20300;-74
2021/12/07 10:05:20;;;;;;;10.38;3.35;;;5.60;83.80;;;;;;5027765;28;20239;-74
2021/12/07 10:07:50;;;;;;;8.13;2.83;;;5.60;83.70;;;;;;5024245;28;20593;-72
2021/12/07 10:10:21;;;;;;;8.65;3.50;;;5.60;83.70;;;;;;5023773;28;20217;-70
2021/12/07 10:12:49;;;;;;;7.13;3.22;;;5.60;83.60;;;;;;5026841;28;20197;-73
2021/12/07 10:15:19;;;;;;;14.20;3.25;;;5.60;83.60;;;;;;5022145;28;20224;-72
2021/12/07 10:18:01;;;;;;;11.07;3.63;;;5.60;83.60;;;;;;5022032;28;20225;-72
2021/12/07 10:20:37;;;;;;;11.25;4.20;;;5.60;83.60;;;;;;5023099;28;20224;-73
2021/12/07 10:23:23;;;;;;;10.88;3.20;;;5.60;83.60;;;;;;5016972;28;20212;-72
2021/12/07 10:25:55;;;;;;;7.63;3.00;;;5.60;83.40;;;;;;5021641;28;20207;-71
2021/12/07 10:28:29;;;;;;;12.73;3.55;;;5.60;83.30;;;;;;5024992;28;20583;-71
2021/12/07 10:31:03;;;;;;;10.38;4.20;;;5.60;83.30;;;;;;5023025;28;20236;-73
2021/12/07 10:33:33;;;;;;;9.70;3.28;;;5.60;83.40;;;;;;5021517;28;20209;-72
2021/12/07 10:36:11;;;;;;;13.85;3.97;;;5.60;83.30;;;;;;5021582;28;20196;-72
2021/12/07 10:38:40;;;;;;;7.55;3.03;;;5.60;83.40;;;;;;5023266;28;20324;-72
2021/12/07 10:41:15;;;;;;;11.38;3.50;;;5.60;83.30;;;;;;5019564;28;20220;-72
2021/12/07 10:43:51;;;;;;;8.48;3.38;;;5.60;83.30;;;;;;5017556;28;20201;-72
2021/12/07 10:46:39;;;;;;;6.65;3.10;;;5.60;83.30;;;;;;5017096;28;20244;-72
2021/12/07 10:49:26;;;;;;;13.45;3.90;;;5.60;83.30;;;;;;5019942;28;20233;-72
2021/12/07 10:52:20;;;;;;;7.15;3.42;;;5.60;83.40;;;;;;5020816;28;20207;-72
2021/12/07 10:54:54;;;;;;;13.02;3.78;;;5.70;83.30;;;;;;5018094;28;20252;-72
2021/12/07 10:57:25;;;;;;;6.35;3.67;;;5.70;83.30;;;;;;5018719;28;20315;-72
2021/12/07 11:00:00;;;;;;;13.05;4.03;;;5.70;83.30;;;;;;5019360;28;20280;-72
2021/12/07 11:02:33;;;;;;;11.02;4.65;;;5.70;83.20;;;;;;5018956;28;20229;-72
2021/12/07 11:05:04;;;;;;;9.25;4.10;;;5.70;83.10;;;;;;5017213;28;20297;-72
2021/12/07 11:07:34;;;;;;;7.15;3.38;;;5.70;83.10;;;;;;5018173;28;20906;-72
2021/12/07 11:10:08;;;;;;;13.60;3.72;;;5.70;83.10;;;;;;5016967;28;20195;-72
2021/12/07 11:12:46;;;;;;;10.48;3.58;;;5.70;83.10;;;;;;5016054;28;20256;-72
2021/12/07 11:15:20;;;;;;;10.18;3.70;;;5.70;83.20;;;;;;5020061;28;20280;-72
2021/12/07 11:17:50;;;;;;;8.90;3.80;;;5.70;83.10;;;;;;5018143;28;20220;-72
2021/12/07 11:20:19;;;;;;;11.32;3.90;;;5.70;83.10;;;;;;5016131;28;20214;-72
2021/12/07 11:22:49;;;;;;;14.05;4.75;;;5.70;82.90;;;;;;5015123;28;20284;-72
2021/12/07 11:31:19;;;;;;;7.07;3.40;;;5.80;82.90;;;;;;5013797;28;20256;-72
2021/12/07 11:33:50;;;;;;;10.18;3.90;;;5.80;82.90;;;;;;5021819;28;20808;-72
2021/12/07 11:36:22;;;;;;;7.70;3.90;;;5.80;82.90;;;;;;5014542;28;20252;-72
2021/12/07 11:38:51;;;;;;;6.28;3.83;;;5.70;82.80;;;;;;5016635;28;20223;-72
2021/12/07 11:41:22;;;;;;;10.10;4.80;;;5.80;82.80;;;;;;5016333;28;20222;-72
2021/12/07 11:43:56;;;;;;;10.68;3.95;;;5.80;82.80;;;;;;5019694;28;20205;-72
2021/12/07 11:46:27;;;;;;;9.98;3.67;;;5.70;82.80;;;;;;5019802;28;20240;-72
2021/12/07 11:49:10;;;;;;;9.95;3.53;;;5.70;82.80;;;;;;5015980;28;20237;-72
2021/12/07 11:51:39;;;;;;;12.63;3.78;;;5.80;82.90;;;;;;5019004;28;20209;-72
2021/12/07 11:54:08;;;;;;;14.88;4.35;;;5.80;82.90;;;;;;5019094;28;20605;-72
2021/12/07 11:56:37;;;;;;;11.70;3.50;;;5.80;82.90;;;;;;5015972;28;20217;-72
2021/12/07 11:59:06;;;;;;;8.07;3.22;;;5.90;82.80;;;;;;5019097;28;20609;-72
2021/12/07 12:01:44;;;;;;;10.80;3.60;;;5.90;82.90;;;;;;5015838;28;20701;-72
2021/12/07 12:04:15;;;;;;;10.65;3.17;;;5.90;82.80;;;;;;5021501;28;20224;-72
2021/12/07 12:06:43;;;;;;;7.63;3.22;;;5.90;82.80;;;;;;5016829;28;20355;-72
2021/12/07 12:09:12;;;;;;;8.70;3.00;;;6.00;82.70;;;;;;5021252;28;20236;-72
2021/12/07 12:11:50;;;;;;;8.45;3.75;;;6.00;82.50;;;;;;5015900;28;20213;-71
2021/12/07 12:14:37;;;;;;;8.73;2.88;;;6.00;82.50;;;;;;5020046;28;20200;-72
2021/12/07 12:17:10;;;;;;;7.55;2.90;;;6.00;82.50;;;;;;5016852;28;20248;-72
2021/12/07 12:19:54;;;;;;;11.25;3.80;;;6.00;82.40;;;;;;5023117;28;20608;-72
2021/12/07 12:22:27;;;;;;;7.47;2.72;;;6.00;82.50;;;;;;5015513;28;20267;-71
2021/12/07 12:24:59;;;;;;;9.65;3.28;;;6.10;82.40;;;;;;5022576;28;20255;-71
2021/12/07 12:27:30;;;;;;;9.10;3.15;;;6.10;82.50;;;;;;5019167;28;20598;-71
2021/12/07 12:30:00;;;;;;;9.95;3.17;;;6.10;82.40;;;;;;5022062;28;20213;-72
2021/12/07 12:32:31;;;;;;;11.07;2.90;;;6.10;82.40;;;;;;5021666;28;20221;-72
2021/12/07 12:35:01;;;;;;;5.95;2.50;;;6.10;82.40;;;;;;5020409;28;20286;-71
2021/12/07 12:37:31;;;;;;;8.88;3.28;;;6.20;82.30;;;;;;5019287;28;20615;-71
2021/12/07 12:40:03;;;;;;;6.97;2.92;;;6.20;82.00;;;;;;5020636;28;20209;-71
2021/12/07 12:42:36;;;;;;;10.75;2.85;;;6.20;82.00;;;;;;5018547;28;20282;-71
2021/12/07 12:45:19;;;;;;;7.30;2.75;;;6.20;81.90;;;;;;5016089;28;20206;-71
2021/12/07 12:47:54;;;;;;;10.45;2.60;;;6.20;81.80;;;;;;5018302;28;20233;-72
2021/12/07 12:50:27;;;;;;;7.22;2.75;;;6.20;81.90;;;;;;5019544;28;20713;-72
2021/12/07 12:52:58;;;;;;;9.00;3.20;;;6.20;81.80;;;;;;5015328;28;20216;-71
2021/12/07 12:55:38;;;;;;;7.28;2.60;;;6.20;81.80;;;;;;5015120;28;20237;-71
2021/12/07 12:58:09;;;;;;;10.38;2.67;;;6.20;81.70;;;;;;5013661;28;20228;-71
2021/12/07 13:01:07;;;;;;;8.73;2.42;;;6.20;81.60;;;;;;5016198;28;20263;-71
2021/12/07 13:04:01;;;;;;;8.05;2.83;;;6.20;81.40;;;;;;5013392;28;20742;-71
2021/12/07 13:07:02;;;;;;;6.72;3.05;;;6.20;81.40;;;;;;5015194;28;20581;-71
2021/12/07 13:09:41;;;;;;;11.25;2.58;;;6.20;81.30;;;;;;5018600;28;20214;-71
2021/12/07 13:12:13;;;;;;;7.50;3.30;;;6.20;81.30;;;;;;5015880;28;20216;-71
2021/12/07 13:14:51;;;;;;;11.35;3.15;;;6.20;81.40;;;;;;5014385;28;20376;-71
2021/12/07 13:17:23;;;;;;;5.80;2.25;;;6.20;81.40;;;;;;5019791;28;20247;-71
2021/12/07 13:20:24;;;;;;;8.50;3.15;;;6.30;81.30;;;;;;5020339;28;20227;-71
2021/12/07 13:22:57;;;;;;;6.57;2.88;;;6.30;81.00;;;;;;5021429;28;20215;-71
2021/12/07 13:25:28;;;;;;;6.80;2.60;;;6.30;81.20;;;;;;5024591;28;20643;-71
2021/12/07 13:28:27;;;;;;;11.55;3.05;;;6.30;81.00;;;;;;5022345;28;20245;-71
2021/12/07 13:31:17;;;;;;;6.35;2.80;;;6.30;80.90;;;;;;5022548;28;20228;-71
2021/12/07 13:33:50;;;;;;;8.43;3.00;;;6.20;80.80;;;;;;5019483;28;20218;-71
2021/12/07 13:36:37;;;;;;;7.40;3.20;;;6.20;80.70;;;;;;5023186;28;20229;-71
2021/12/07 13:39:32;;;;;;;6.30;2.58;;;6.20;80.70;;;;;;5020899;28;20882;-71
2021/12/07 13:42:03;;;;;;;12.07;2.60;;;6.20;80.60;;;;;;5020131;28;20343;-71
2021/12/07 13:44:34;;;;;;;12.32;2.50;;;6.20;80.70;;;;;;5023424;28;20217;-71
2021/12/07 13:47:05;;;;;;;11.23;3.13;;;6.10;80.50;;;;;;5024977;28;20296;-71
2021/12/07 13:49:34;;;;;;;8.52;2.58;;;6.20;80.60;;;;;;5023366;28;20683;-71
2021/12/07 13:52:10;;;;;;;9.23;2.92;;;6.20;80.50;;;;;;5021428;28;20215;-71
2021/12/07 13:54:43;;;;;;;7.88;2.80;;;6.20;80.50;;;;;;5020169;28;20202;-71
2021/12/07 13:57:17;;;;;;;14.02;3.15;;;6.20;80.40;;;;;;5021465;28;20244;-72
2021/12/07 14:00:09;;;;;;;9.52;2.97;;;6.20;80.40;;;;;;5021614;28;20204;-71
2021/12/07 14:02:43;;;;;;;7.78;2.50;;;6.20;80.30;;;;;;5020846;28;20230;-72
2021/12/07 14:05:14;;;;;;;8.43;2.40;;;6.10;80.20;;;;;;5020890;28;20214;-71
2021/12/07 14:07:44;;;;;;;14.43;3.45;;;6.10;80.20;;;;;;5023613;28;20228;-71
2021/12/07 14:10:17;;;;;;;12.00;3.17;;;6.10;80.10;;;;;;5025469;28;20574;-71
2021/12/07 14:12:47;;;;;;;11.68;2.83;;;6.10;80.20;;;;;;5022027;28;20563;-71
2021/12/07 14:15:20;;;;;;;6.45;2.92;;;6.10;80.30;;;;;;5021731;28;20202;-71
2021/12/07 14:17:51;;;;;;;10.40;2.70;;;6.20;80.20;;;;;;5018646;28;20227;-71
2021/12/07 14:20:32;;;;;;;6.28;2.45;;;6.20;80.10;;;;;;5017390;28;20590;-71
2021/12/07 14:23:02;;;;;;;7.65;2.70;;;6.20;80.00;;;;;;5017383;28;20592;-71
2021/12/07 14:25:31;;;;;;;7.20;3.00;;;6.20;79.90;;;;;;5021832;28;20726;-71
2021/12/07 14:27:59;;;;;;;7.15;2.95;;;6.20;79.90;;;;;;5018253;28;20279;-71
2021/12/07 14:30:29;;;;;;;9.35;2.60;;;6.20;79.80;;;;;;5016909;28;20260;-71
2021/12/07 14:32:58;;;;;;;6.80;2.90;;;6.20;79.80;;;;;;5018773;28;20202;-71
2021/12/07 14:35:26;;;;;;;6.90;2.50;;;6.20;79.80;;;;;;5019625;28;20205;-71
2021/12/07 14:37:54;;;;;;;4.72;2.25;;;6.20;79.80;;;;;;5018457;28;20231;-72
2021/12/07 14:40:22;;;;;;;8.25;2.40;;;6.20;79.70;;;;;;5019214;28;20257;-72
2021/12/07 14:43:11;;;;;;;8.15;3.22;;;6.20;79.70;;;;;;5019356;28;20217;-71